Time;durP1;ratioP1;P1;durP2;ratioP2;P2;SDS_P1;SDS_P2;PMS_P1;PMS_P2;Temp;Humidity;BMP_temperature;BMP_pressure;BME280_temperature;BME280_humidity;BME280_pressure;Samples;Min_cycle;Max_cycle;Signal;HPM_P1;HPM_P2
2020/12/11 00:01:58;;;;;;;40.83;23.90;;;;;;;0.84;77.92;100811.13;1762670;79;21346;-89
2020/12/11 00:04:27;;;;;;;38.47;23.20;;;;;;;0.86;78.21;100817.09;1768016;79;21159;-87
2020/12/11 00:06:58;;;;;;;36.30;21.07;;;;;;;0.81;78.12;100819.25;1769194;80;21132;-88
2020/12/11 00:09:27;;;;;;;33.47;20.47;;;;;;;0.74;77.84;100779.97;1759384;80;21208;-84
2020/12/11 00:11:57;;;;;;;41.63;24.40;;;;;;;0.90;77.62;100819.84;1750751;80;21675;-87
2020/12/11 00:14:24;;;;;;;50.70;26.30;;;;;;;0.86;77.71;100815.78;1748333;80;21618;-84
2020/12/11 00:16:51;;;;;;;38.20;22.80;;;;;;;0.87;77.91;100813.53;1762641;80;21200;-84
2020/12/11 00:19:19;;;;;;;52.03;26.40;;;;;;;1.00;77.57;100809.52;1758337;80;21155;-83
2020/12/11 00:21:46;;;;;;;48.13;25.70;;;;;;;0.99;77.17;100809.63;1768261;80;21216;-81
2020/12/11 00:24:12;;;;;;;36.77;22.83;;;;;;;0.94;77.51;100815.20;1759841;80;21206;-83
2020/12/11 00:26:42;;;;;;;53.90;25.70;;;;;;;0.91;77.89;100816.77;1757948;80;21196;-86
2020/12/11 00:29:10;;;;;;;50.30;26.00;;;;;;;0.89;77.59;100815.56;1760624;80;21744;-83
2020/12/11 00:31:38;;;;;;;;;;;;;;;1.00;77.38;100806.90;1758543;79;21131;-84
2020/12/11 00:34:07;;;;;;;74.22;31.05;;;;;;;0.97;77.43;100811.88;1738302;80;20574;-83
2020/12/11 00:36:35;;;;;;;52.60;24.90;;;;;;;0.87;77.77;100814.02;1742993;79;21130;-87
2020/12/11 00:39:02;;;;;;;44.60;22.53;;;;;;;0.92;77.82;100808.78;1750339;79;22616;-86
2020/12/11 00:41:31;;;;;;;45.53;22.43;;;;;;;1.07;77.49;100800.21;1757976;79;21150;-86
2020/12/11 00:43:58;;;;;;;42.27;23.27;;;;;;;1.02;77.25;100793.63;1737391;81;21187;-87
2020/12/11 00:46:26;;;;;;;30.13;18.37;;;;;;;0.93;77.42;100797.31;1718242;81;21368;-87
2020/12/11 00:48:56;;;;;;;37.27;21.33;;;;;;;0.98;77.54;100807.49;1723538;81;21765;-87
2020/12/11 00:51:24;;;;;;;35.63;19.87;;;;;;;1.15;77.21;100794.41;1721941;81;21167;-86
2020/12/11 00:53:52;;;;;;;32.03;19.80;;;;;;;1.16;77.19;100799.52;1718006;82;21203;-87
2020/12/11 00:56:24;;;;;;;31.70;19.30;;;;;;;1.07;77.03;100804.63;1728194;81;21166;-85
2020/12/11 00:58:55;;;;;;;36.07;18.93;;;;;;;1.02;77.33;100798.43;1760050;78;21197;-87
2020/12/11 01:01:26;;;;;;;35.13;19.77;;;;;;;0.99;77.24;100789.94;1686769;81;21158;-85
2020/12/11 01:03:53;;;;;;;48.50;23.87;;;;;;;1.12;76.93;100790.20;1720462;81;21340;-87
2020/12/11 01:06:22;;;;;;;33.93;18.87;;;;;;;1.11;77.10;100795.56;1727242;79;21281;-85
2020/12/11 01:08:52;;;;;;;40.57;22.80;;;;;;;1.03;77.10;100792.20;1716559;81;21215;-85
2020/12/11 01:11:21;;;;;;;35.13;19.70;;;;;;;0.96;77.34;100798.86;1715953;81;21195;-84
2020/12/11 01:13:49;;;;;;;52.60;24.63;;;;;;;1.10;77.10;100782.09;1714666;82;21212;-86
2020/12/11 01:16:17;;;;;;;39.07;21.53;;;;;;;1.13;77.04;100787.09;1715234;81;21244;-86
2020/12/11 01:18:46;;;;;;;35.73;18.43;;;;;;;1.02;77.03;100794.49;1717623;81;21219;-85
2020/12/11 01:21:14;;;;;;;32.67;19.03;;;;;;;0.97;77.39;100779.07;1738483;81;21160;-85
2020/12/11 01:23:41;;;;;;;34.03;20.67;;;;;;;0.96;77.24;100785.28;1706898;81;21220;-84
2020/12/11 01:26:10;;;;;;;34.07;19.67;;;;;;;1.08;77.05;100787.95;1726495;81;21410;-83
2020/12/11 01:28:37;;;;;;;29.73;18.13;;;;;;;1.04;77.12;100791.27;1711609;82;21199;-83
2020/12/11 01:31:06;;;;;;;30.00;19.33;;;;;;;0.96;77.24;100785.28;1714557;81;22353;-83
2020/12/11 01:33:33;;;;;;;41.77;21.90;;;;;;;0.95;77.34;100783.60;1728601;81;21187;-82
2020/12/11 01:36:00;;;;;;;35.17;18.67;;;;;;;1.06;77.19;100779.34;1723577;81;21142;-82
2020/12/11 01:38:28;;;;;;;39.93;20.30;;;;;;;1.05;76.80;100785.53;1733573;81;21265;-81
2020/12/11 01:40:55;;;;;;;28.80;18.93;;;;;;;0.94;77.15;100783.71;1716116;81;21683;-81
2020/12/11 01:43:23;;;;;;;28.57;16.60;;;;;;;0.94;77.35;100785.88;1727364;81;21187;-83
2020/12/11 01:45:51;;;;;;;28.83;18.47;;;;;;;1.06;76.86;100770.16;1719986;82;21225;-80
2020/12/11 01:48:19;;;;;;;20.67;13.93;;;;;;;1.04;77.13;100778.15;1728005;82;21195;-82
2020/12/11 01:50:50;;;;;;;23.77;16.60;;;;;;;0.88;76.83;100782.37;1713491;82;21192;-84
2020/12/11 01:53:17;;;;;;;27.50;16.33;;;;;;;0.94;77.04;100785.02;1712607;78;21385;-82
2020/12/11 01:55:46;;;;;;;28.10;17.97;;;;;;;1.03;76.73;100763.81;1714577;82;21156;-83
2020/12/11 01:58:22;;;;;;;25.33;17.43;;;;;;;0.99;76.86;100760.59;1722034;81;21269;-83
2020/12/11 02:00:50;;;;;;;25.68;17.27;;;;;;;0.95;77.03;100765.71;1706130;81;21196;-84
2020/12/11 02:03:19;;;;;;;23.53;14.87;;;;;;;1.00;76.82;100759.64;1728292;81;21159;-85
2020/12/11 02:05:47;;;;;;;24.83;15.03;;;;;;;1.05;76.25;100770.61;1728645;80;21218;-82
2020/12/11 02:08:14;;;;;;;26.13;16.57;;;;;;;0.95;76.58;100754.73;1725315;81;21195;-84
2020/12/11 02:10:47;;;;;;;25.07;14.87;;;;;;;0.80;76.75;100774.26;1724516;81;21182;-83
2020/12/11 02:13:14;;;;;;;21.67;14.57;;;;;;;0.78;76.86;100752.55;1719994;82;21337;-85
2020/12/11 02:15:41;;;;;;;26.33;16.77;;;;;;;0.84;76.54;100764.37;1732134;81;21191;-83
2020/12/11 02:18:08;;;;;;;26.50;16.53;;;;;;;0.84;76.63;100757.81;1726930;81;21266;-83
2020/12/11 02:20:36;;;;;;;29.43;18.13;;;;;;;0.76;77.05;100774.95;1716709;81;21287;-83
2020/12/11 02:23:03;;;;;;;29.50;18.27;;;;;;;0.73;77.20;100766.47;1719923;81;21189;-82
2020/12/11 02:25:30;;;;;;;29.53;18.73;;;;;;;0.73;77.15;100761.22;1715966;81;21135;-84
2020/12/11 02:28:13;;;;;;;26.63;14.77;;;;;;;0.91;76.95;100756.41;1764757;79;23142;-83
2020/12/11 02:30:43;;;;;;;33.60;17.90;;;;;;;0.84;76.73;100759.12;1725327;80;21286;-82
2020/12/11 02:33:11;;;;;;;30.90;16.33;;;;;;;0.77;77.02;100741.22;1743113;80;21168;-84
2020/12/11 02:35:42;;;;;;;26.80;17.47;;;;;;;0.71;76.98;100772.31;1724174;80;21598;-83
2020/12/11 02:38:10;;;;;;;28.03;16.90;;;;;;;0.83;76.85;100753.05;1691124;83;21155;-87
2020/12/11 02:40:40;;;;;;;29.90;16.67;;;;;;;0.89;76.82;100769.63;1694493;83;21403;-89
2020/12/11 02:43:10;;;;;;;25.73;16.83;;;;;;;0.84;76.62;100774.38;1691099;83;21186;-89
2020/12/11 02:45:51;;;;;;;27.17;14.53;;;;;;;0.78;76.85;100760.41;1770979;79;23142;-88
2020/12/11 02:48:20;;;;;;;29.10;18.00;;;;;;;0.81;76.68;100768.52;1741305;81;21637;-88
2020/12/11 02:50:49;;;;;;;42.40;19.03;;;;;;;0.86;76.43;100772.96;1750302;80;21337;-87
2020/12/11 02:53:23;;;;;;;33.63;18.80;;;;;;;0.82;76.54;100776.77;1726544;83;21181;-88
2020/12/11 02:55:52;;;;;;;28.33;14.97;;;;;;;0.78;76.63;100780.09;1731734;80;21661;-87
2020/12/11 02:58:19;;;;;;;39.07;16.83;;;;;;;0.72;75.85;100784.02;1771744;79;21503;-86
2020/12/11 03:00:46;;;;;;;33.17;16.57;;;;;;;0.73;76.04;100788.29;1773773;79;21167;-86
2020/12/11 03:03:13;;;;;;;45.57;19.47;;;;;;;0.75;76.11;100799.99;1774065;79;21194;-86
2020/12/11 03:05:41;;;;;;;36.63;17.13;;;;;;;0.67;76.30;100779.57;1654970;85;21850;-87
2020/12/11 03:08:09;;;;;;;36.63;20.30;;;;;;;0.62;76.17;100790.88;1726930;81;21159;-88
2020/12/11 03:10:37;;;;;;;40.30;17.93;;;;;;;0.76;76.00;100785.45;1729844;80;21123;-85
2020/12/11 03:13:04;;;;;;;31.73;17.53;;;;;;;0.76;75.82;100789.39;1734153;80;21187;-87
2020/12/11 03:15:31;;;;;;;31.27;18.27;;;;;;;0.72;75.85;100791.05;1713633;83;21316;-86
2020/12/11 03:17:58;;;;;;;33.67;17.00;;;;;;;0.66;76.01;100791.03;1721703;83;21182;-88
2020/12/11 03:20:25;;;;;;;29.93;17.30;;;;;;;0.65;75.78;100768.36;1723043;82;21190;-87
2020/12/11 03:22:56;;;;;;;31.43;17.20;;;;;;;0.76;75.68;100783.31;1709084;81;21177;-88
2020/12/11 03:25:25;;;;;;;28.53;16.20;;;;;;;0.70;75.66;100774.11;1716434;81;21182;-89
2020/12/11 03:27:52;;;;;;;31.90;15.03;;;;;;;0.65;75.96;100784.09;1727274;83;21182;-87
2020/12/11 03:30:20;;;;;;;34.13;15.53;;;;;;;0.66;75.81;100777.91;1706118;83;21173;-90
2020/12/11 03:32:47;;;;;;;36.83;19.63;;;;;;;0.67;75.17;100766.45;1720240;83;21238;-89
2020/12/11 03:35:14;;;;;;;38.57;18.87;;;;;;;0.60;75.40;100763.91;1721641;81;21162;-87
2020/12/11 03:37:41;;;;;;;26.57;15.43;;;;;;;0.48;75.91;100771.39;1688529;83;21177;-89
2020/12/11 03:40:08;;;;;;;31.53;17.00;;;;;;;0.58;75.74;100774.55;1715989;83;21188;-88
2020/12/11 03:42:35;;;;;;;32.40;17.60;;;;;;;0.61;75.69;100763.47;1721021;81;21196;-89
2020/12/11 03:45:03;;;;;;;29.23;16.20;;;;;;;0.48;75.62;100759.11;1723216;81;21385;-88
2020/12/11 03:47:32;;;;;;;25.80;14.73;;;;;;;0.44;75.75;100776.51;1734054;81;21178;-89
2020/12/11 03:49:59;;;;;;;35.27;16.90;;;;;;;0.56;75.61;100769.86;1744493;81;21369;-88
2020/12/11 03:52:29;;;;;;;21.53;14.33;;;;;;;0.58;75.76;100778.94;1741677;79;21182;-88
2020/12/11 03:55:23;;;;;;;29.00;14.90;;;;;;;0.56;75.89;100780.35;1787696;78;23151;-88
2020/12/11 03:57:50;;;;;;;24.03;15.50;;;;;;;0.45;75.41;100785.55;1761251;80;21143;-90
2020/12/11 04:00:32;;;;;;;31.97;17.93;;;;;;;0.48;75.40;100779.27;1760232;80;21148;-90
2020/12/11 04:03:11;;;;;;;45.20;20.10;;;;;;;0.53;75.01;100795.03;1749811;81;21194;-92
2020/12/11 04:05:57;;;;;;;31.30;15.30;;;;;;;0.40;75.52;100789.00;1722464;81;21324;-90
2020/12/11 04:09:27;;;;;;;31.97;16.67;;;;;;;0.37;75.76;100786.59;1743579;81;21376;-90
2020/12/11 04:12:52;;;;;;;33.90;19.57;;;;;;;0.44;75.20;100793.07;1713584;82;21660;-90
2020/12/11 04:20:04;;;;;;;23.57;16.13;;;;;;;0.34;75.54;100786.80;1713460;82;21161;-91
2020/12/11 04:22:33;;;;;;;32.67;16.57;;;;;;;0.29;75.28;100783.22;1708152;82;21189;-91
2020/12/11 04:25:13;;;;;;;25.97;14.57;;;;;;;0.32;75.44;100792.19;1730352;82;21155;-92
2020/12/11 04:28:08;;;;;;;23.55;16.25;;;;;;;0.39;75.12;100796.50;1713753;82;21271;-91
2020/12/11 04:30:39;;;;;;;20.83;12.73;;;;;;;0.41;74.90;100782.80;1676718;82;21307;-91
2020/12/11 04:33:32;;;;;;;29.12;19.37;;;;;;;0.33;74.90;100783.84;1779432;78;39141;-88
2020/12/11 04:36:34;;;;;;;35.17;15.90;;;;;;;0.45;74.66;100785.55;1694924;80;21123;-90
2020/12/11 04:39:34;;;;;;;21.77;15.83;;;;;;;0.56;73.77;100794.78;1651632;85;21343;-89
2020/12/11 04:42:01;;;;;;;23.60;15.10;;;;;;;0.52;74.27;100795.13;1632294;87;21867;-88
2020/12/11 04:44:43;;;;;;;26.13;14.27;;;;;;;0.47;74.25;100790.23;1678041;85;21814;-90
2020/12/11 04:47:20;;;;;;;23.03;14.60;;;;;;;0.46;73.55;100789.86;1687656;84;21250;-88
2020/12/11 04:49:54;;;;;;;24.40;15.90;;;;;;;0.35;73.96;100796.36;1650070;85;21215;-89
2020/12/11 04:52:44;;;;;;;24.17;15.40;;;;;;;0.37;74.24;100788.73;1786253;77;23078;-91
2020/12/11 04:55:18;;;;;;;28.53;17.23;;;;;;;0.33;73.97;100798.26;1755118;80;21195;-90
2020/12/11 04:57:55;;;;;;;26.30;15.90;;;;;;;0.36;74.03;100808.53;1759896;80;21167;-91
2020/12/11 05:04:58;;;;;;;20.57;12.67;;;;;;;0.25;73.72;100818.95;1740154;80;21197;-93
2020/12/11 05:08:42;;;;;;;23.57;14.73;;;;;;;0.18;73.49;100808.89;1626281;86;21138;-92
2020/12/11 05:15:16;;;;;;;42.70;17.57;;;;;;;0.08;73.22;100828.85;1692532;83;21161;-89
2020/12/11 05:17:45;;;;;;;54.10;18.67;;;;;;;0.02;73.37;100828.44;1638024;83;21086;-89
2020/12/11 05:20:18;;;;;;;36.87;17.67;;;;;;;-0.04;73.25;100815.29;1720464;82;21126;-87
2020/12/11 05:22:59;;;;;;;31.10;16.37;;;;;;;-0.13;73.66;100823.34;1722327;80;21289;-90
2020/12/11 05:25:24;;;;;;;26.03;15.50;;;;;;;-0.08;73.67;100837.42;1713403;83;21126;-91
2020/12/11 05:27:58;;;;;;;23.60;15.50;;;;;;;-0.13;73.88;100842.14;1748316;80;21181;-90
2020/12/11 05:30:31;;;;;;;23.60;15.50;;;;;;;-0.08;73.81;100832.17;1688264;80;21245;-94
2020/12/11 05:34:11;;;;;;;31.23;15.97;;;;;;;-0.08;73.82;100837.42;1757227;79;24914;-90
2020/12/11 05:36:54;;;;;;;23.77;12.63;;;;;;;-0.09;73.54;100841.00;1737049;80;21269;-91
2020/12/11 05:39:32;;;;;;;30.37;16.73;;;;;;;-0.16;73.09;100857.61;1673294;84;21227;-90
2020/12/11 05:42:11;;;;;;;;;;;;;;;-0.23;72.56;100846.73;1656233;82;21181;-91
2020/12/11 05:45:33;;;;;;;23.30;14.20;;;;;;;-0.22;72.88;100865.42;1678758;84;20182;-92
2020/12/11 05:48:47;;;;;;;26.57;14.03;;;;;;;-0.26;73.26;100840.86;1759539;79;24774;-93
2020/12/11 05:51:29;;;;;;;29.17;15.43;;;;;;;-0.33;73.42;100848.77;1712155;82;21271;-91
2020/12/11 05:54:47;;;;;;;28.00;15.90;;;;;;;-0.33;72.95;100861.39;1689453;83;21137;-92
2020/12/11 05:57:39;;;;;;;26.47;15.53;;;;;;;-0.38;73.12;100863.95;1698289;83;21314;-93
2020/12/11 06:00:49;;;;;;;31.77;15.40;;;;;;;-0.40;73.23;100847.03;1673022;81;21618;-89
2020/12/11 06:03:25;;;;;;;32.37;17.40;;;;;;;-0.37;73.14;100849.94;1692742;82;21313;-92
2020/12/11 06:05:58;;;;;;;27.40;13.47;;;;;;;-1.17;73.16;100723.97;1695927;83;21133;-91
2020/12/11 06:08:29;;;;;;;25.10;16.07;;;;;;;-0.38;73.14;100848.23;1678331;84;21167;-89
2020/12/11 06:10:59;;;;;;;20.33;14.17;;;;;;;-0.37;73.53;100856.48;1686769;84;21190;-90
2020/12/11 06:13:39;;;;;;;24.30;15.30;;;;;;;-0.40;73.76;100856.20;1667132;84;21317;-91
2020/12/11 06:16:07;;;;;;;23.27;14.17;;;;;;;-0.43;74.03;100853.33;1693617;84;21337;-92
2020/12/11 06:18:40;;;;;;;21.03;13.23;;;;;;;-0.43;73.74;100856.42;1665347;85;21167;-89
2020/12/11 06:21:09;;;;;;;26.43;15.83;;;;;;;-0.54;72.91;100872.86;1651220;84;21195;-88
2020/12/11 06:23:49;;;;;;;23.23;13.53;;;;;;;-0.49;73.05;100859.44;1594778;87;21443;-89
2020/12/11 06:27:04;;;;;;;19.93;13.83;;;;;;;-0.48;73.08;100867.20;1817657;76;24939;-91
2020/12/11 06:29:41;;;;;;;20.57;13.77;;;;;;;-0.49;72.68;100845.03;1768229;79;21233;-92
2020/12/11 06:32:09;;;;;;;23.70;14.00;;;;;;;-0.53;72.88;100852.73;1805958;79;21157;-89
2020/12/11 06:34:39;;;;;;;24.07;15.20;;;;;;;-0.54;72.93;100853.70;1725498;81;21208;-90
2020/12/11 06:37:10;;;;;;;23.67;11.87;;;;;;;-0.67;73.10;100849.75;1682210;80;21189;-90
2020/12/11 06:39:45;;;;;;;22.73;14.77;;;;;;;-1.01;73.14;100814.89;1645749;85;21160;-90
2020/12/11 06:42:39;;;;;;;26.60;17.57;;;;;;;-0.76;72.85;100844.66;1649538;86;21193;-90
2020/12/11 06:45:18;;;;;;;28.00;15.87;;;;;;;-0.68;73.11;100865.08;1626866;87;21355;-91
2020/12/11 06:55:49;;;;;;;26.02;18.73;;;;;;;-0.86;71.51;100839.68;1751423;79;28380;-85
2020/12/11 06:58:19;;;;;;;28.80;14.20;;;;;;;-0.87;71.66;100858.92;1734244;82;21140;-86
2020/12/11 07:01:05;;;;;;;22.63;14.33;;;;;;;-0.83;71.67;100864.32;1737346;79;21164;-88
2020/12/11 07:04:24;;;;;;;24.47;14.40;;;;;;;-0.90;71.28;100857.36;1696894;81;21638;-86
2020/12/11 07:07:29;;;;;;;23.83;15.33;;;;;;;-1.02;72.11;100849.86;1702297;81;21281;-85
2020/12/11 07:09:56;;;;;;;19.87;13.60;;;;;;;-1.04;71.89;100850.40;1719569;82;21190;-82
2020/12/11 07:12:24;;;;;;;;;;;;;;;-1.11;71.92;100859.62;1731314;82;21135;-84
2020/12/11 07:15:15;;;;;;;25.90;13.00;;;;;;;-1.12;71.87;100834.38;1724656;82;20196;-87
2020/12/11 07:17:45;;;;;;;25.77;15.67;;;;;;;-1.19;72.14;100829.17;1722267;82;21171;-85
2020/12/11 07:20:13;;;;;;;22.73;13.43;;;;;;;-1.14;72.19;100836.27;1670603;82;21378;-82
2020/12/11 07:22:49;;;;;;;23.17;14.60;;;;;;;-1.12;72.28;100838.78;1723264;82;21193;-84
2020/12/11 07:25:16;;;;;;;36.93;17.57;;;;;;;-1.09;72.02;100830.27;1725444;83;21159;-80
2020/12/11 07:28:02;;;;;;;26.17;16.27;;;;;;;-1.07;71.95;100828.38;1722566;82;21207;-85
2020/12/11 07:30:30;;;;;;;28.63;16.67;;;;;;;-1.06;72.56;100833.97;1728396;80;21124;-90
2020/12/11 07:33:04;;;;;;;25.13;16.70;;;;;;;-1.05;72.44;100818.66;1728007;78;21266;-86
2020/12/11 07:35:32;;;;;;;22.67;14.33;;;;;;;-1.00;72.28;100824.88;1724729;81;21217;-90
2020/12/11 07:38:02;;;;;;;28.90;17.13;;;;;;;-1.02;71.23;100823.69;1649221;84;21247;-88
2020/12/11 07:40:34;;;;;;;30.30;18.03;;;;;;;-1.05;71.02;100838.27;1683862;84;21215;-89
2020/12/11 07:43:04;;;;;;;28.77;17.90;;;;;;;-1.04;71.16;100829.95;1657327;84;21363;-83
2020/12/11 07:45:35;;;;;;;24.43;15.23;;;;;;;-1.09;71.09;100823.72;1692781;84;21207;-86
2020/12/11 07:48:06;;;;;;;23.97;14.10;;;;;;;-1.13;71.02;100828.80;1647380;85;21328;-89
2020/12/11 07:51:01;;;;;;;18.70;12.57;;;;;;;-1.19;71.01;100834.41;1679453;84;21199;-89
2020/12/11 07:53:34;;;;;;;26.50;16.30;;;;;;;-1.29;70.84;100844.64;1684086;84;21169;-90
2020/12/11 07:56:21;;;;;;;;;;;;;;;-1.24;70.78;100829.48;1702810;80;21220;-88
2020/12/11 07:58:49;;;;;;;29.43;15.40;;;;;;;-1.29;70.83;100845.11;1701481;82;20211;-91
2020/12/11 08:01:28;;;;;;;25.87;14.87;;;;;;;-1.30;71.37;100831.20;1706887;82;21311;-87
2020/12/11 08:03:58;;;;;;;24.43;16.13;;;;;;;-1.35;71.82;100835.05;1708454;82;21794;-93
2020/12/11 08:06:27;;;;;;;34.00;18.90;;;;;;;-1.30;71.36;100825.11;1661065;84;21189;-90
2020/12/11 08:09:18;;;;;;;32.93;17.70;;;;;;;-1.31;71.69;100829.52;1704939;80;21148;-90
2020/12/11 08:19:09;;;;;;;27.13;15.67;;;;;;;-1.25;71.85;100834.34;1650201;82;21161;-93
2020/12/11 08:22:42;;;;;;;26.00;16.97;;;;;;;-1.31;72.30;100828.20;1599929;85;21639;31
2020/12/11 08:28:22;;;;;;;25.50;16.63;;;;;;;-1.30;72.05;100822.50;1608774;87;21192;-94
2020/12/11 08:50:02;;;;;;;24.97;17.03;;;;;;;-0.21;68.33;100822.57;1765642;81;21191;-91
2020/12/11 08:52:27;;;;;;;29.37;19.10;;;;;;;-0.20;68.31;100811.61;1741028;81;21188;-86
2020/12/11 08:54:58;;;;;;;25.13;14.90;;;;;;;-0.20;67.94;100814.23;1709228;82;21275;-84
2020/12/11 08:57:30;;;;;;;40.17;19.63;;;;;;;-0.24;67.64;100829.32;1737826;81;21728;-80
2020/12/11 08:59:56;;;;;;;28.37;16.20;;;;;;;-0.31;67.95;100804.97;1737301;82;21175;-78
2020/12/11 09:02:24;;;;;;;26.00;15.73;;;;;;;-0.43;68.71;100821.06;1733247;82;21217;-84
2020/12/11 09:04:54;;;;;;;27.03;13.33;;;;;;;-1.58;68.29;100638.69;1723903;82;21358;-85
2020/12/11 09:07:24;;;;;;;21.93;14.60;;;;;;;-0.76;68.37;100823.71;1700445;83;21128;-84
2020/12/11 09:09:52;;;;;;;27.33;15.47;;;;;;;-0.89;69.62;100801.92;1714367;83;21191;-85
2020/12/11 09:12:19;;;;;;;25.77;16.77;;;;;;;-1.07;69.66;100827.55;1715830;82;21222;-86
2020/12/11 09:14:46;;;;;;;22.20;14.77;;;;;;;-1.07;69.91;100815.78;1717752;82;21203;-88
2020/12/11 09:17:13;;;;;;;28.63;17.03;;;;;;;-1.22;70.40;100837.24;1717671;79;21333;-85
2020/12/11 09:19:45;;;;;;;28.30;16.37;;;;;;;-1.20;70.18;100810.03;1730621;82;21198;-89
2020/12/11 09:22:23;;;;;;;23.93;15.53;;;;;;;-1.27;70.45;100810.06;1704291;83;21216;-90
2020/12/11 09:24:52;;;;;;;27.63;17.13;;;;;;;-1.33;70.42;100810.47;1723394;82;21171;-89
2020/12/11 09:27:22;;;;;;;23.07;14.43;;;;;;;-1.29;70.46;100801.48;1671501;82;21172;-87
2020/12/11 09:29:52;;;;;;;23.63;15.77;;;;;;;-1.30;70.90;100801.58;1715434;83;21180;-88
2020/12/11 09:35:16;;;;;;;27.73;18.03;;;;;;;-2.56;70.39;100595.83;1726041;81;21188;-91
2020/12/11 09:37:51;;;;;;;40.50;20.87;;;;;;;-1.24;70.89;100824.73;1760329;79;21164;-90
2020/12/11 09:40:21;;;;;;;29.40;17.60;;;;;;;-1.19;70.47;100799.09;1762217;80;21139;-84
2020/12/11 09:45:28;;;;;;;37.67;20.33;;;;;;;-1.18;70.71;100797.69;1754996;79;21117;-87
2020/12/11 09:48:12;;;;;;;25.13;17.73;;;;;;;-1.15;70.66;100782.73;1752278;81;21633;-90
2020/12/11 09:53:18;;;;;;;34.17;16.83;;;;;;;-1.14;70.38;100781.32;1807520;79;22860;-93
2020/12/11 09:56:03;;;;;;;31.30;16.07;;;;;;;-1.27;70.58;100783.08;1790400;80;21160;-92
2020/12/11 09:58:35;;;;;;;28.30;16.73;;;;;;;-1.26;70.67;100786.04;1748790;80;21947;-93
2020/12/11 10:01:10;;;;;;;24.53;16.67;;;;;;;-1.41;71.32;100780.90;1755257;80;21212;-90
2020/12/11 10:03:58;;;;;;;28.27;15.73;;;;;;;-1.39;71.15;100779.02;1747362;80;21169;-89
2020/12/11 10:06:26;;;;;;;27.47;17.87;;;;;;;-1.52;71.53;100779.45;1677598;81;21133;-92
2020/12/11 10:09:10;;;;;;;30.33;18.80;;;;;;;-1.49;71.53;100763.55;1638886;85;21195;-94
2020/12/11 10:12:02;;;;;;;26.77;15.70;;;;;;;-1.46;71.84;100766.45;1628963;85;21238;-90
2020/12/11 10:16:00;;;;;;;32.00;18.77;;;;;;;-1.42;71.17;100780.99;1602269;85;21255;-90
2020/12/11 10:18:39;;;;;;;34.23;17.30;;;;;;;-1.45;70.79;100765.05;1599370;88;21414;-92
2020/12/11 10:21:10;;;;;;;28.73;19.40;;;;;;;-1.52;71.36;100749.86;1594405;89;21709;-88
2020/12/11 10:23:38;;;;;;;27.30;15.93;;;;;;;-1.46;71.38;100751.59;1593152;88;21702;-86
2020/12/11 10:26:05;;;;;;;26.83;16.10;;;;;;;-1.42;71.23;100741.29;1592533;88;22199;-86
2020/12/11 10:28:33;;;;;;;28.43;16.90;;;;;;;-1.41;71.19;100750.00;1593754;88;21405;-86
2020/12/11 10:31:00;;;;;;;23.90;15.20;;;;;;;-1.42;71.14;100763.52;1574836;90;21433;-87
2020/12/11 10:33:27;;;;;;;31.10;17.20;;;;;;;-1.42;70.84;100758.77;1577255;90;21224;-87
2020/12/11 10:35:54;;;;;;;25.07;16.17;;;;;;;-1.40;70.50;100742.50;1578791;89;21170;-88
2020/12/11 10:38:26;;;;;;;24.17;17.40;;;;;;;-1.38;70.32;100741.93;1576614;90;21329;-88
2020/12/11 10:40:52;;;;;;;28.07;16.93;;;;;;;-1.38;70.29;100746.68;1576605;90;21746;-88
2020/12/11 10:43:19;;;;;;;25.43;16.30;;;;;;;-1.38;70.14;100757.62;1574442;90;21733;-88
2020/12/11 10:45:46;;;;;;;24.53;15.37;;;;;;;-1.39;70.26;100746.81;1575020;90;21395;-87
2020/12/11 10:48:13;;;;;;;29.47;16.50;;;;;;;-1.40;70.01;100761.64;1577395;90;21400;-88
2020/12/11 11:11:18;;;;;;;;;;;;;;;;;;;;;
2020/12/11 11:22:14;;;;;;;27.03;15.80;;;;;;;-1.82;70.67;100754.34;1759502;77;21131;-86
2020/12/11 11:27:32;;;;;;;27.00;17.00;;;;;;;-1.77;70.76;100737.91;1794343;78;23622;-86
2020/12/11 11:29:56;;;;;;;;;;;;;;;-1.76;70.44;100726.98;1789449;79;21199;-86
2020/12/11 11:32:24;;;;;;;28.92;15.72;;;;;;;-1.88;70.89;100740.85;1772946;80;20300;-87
2020/12/11 11:34:51;;;;;;;25.60;15.30;;;;;;;-1.85;70.58;100728.41;1711865;82;21212;-82
2020/12/11 11:37:18;;;;;;;23.73;15.33;;;;;;;-1.92;70.93;100727.14;1656104;82;21107;-84
2020/12/11 11:39:45;;;;;;;26.27;15.93;;;;;;;-1.87;70.80;100738.11;1669440;84;21414;-85
2020/12/11 11:42:12;;;;;;;25.10;16.13;;;;;;;-1.86;71.04;100735.89;1658979;85;21373;-87
2020/12/11 11:47:32;;;;;;;25.37;14.50;;;;;;;-1.78;71.09;100738.83;1811305;77;23085;-87
2020/12/11 11:55:18;;;;;;;20.70;14.90;;;;;;;-1.77;70.89;100724.84;1810187;77;21218;-89
2020/12/11 11:57:53;;;;;;;23.70;14.70;;;;;;;-1.79;70.11;100760.70;1818989;77;21235;-92
2020/12/11 12:05:35;;;;;;;;;;;;;;;;;;;;;
2020/12/11 12:19:33;;;;;;;25.97;21.87;;;;;;;-2.38;71.83;100737.86;1778641;79;28451;-92
2020/12/11 12:29:17;;;;;;;26.30;16.70;;;;;;;-2.11;71.37;100712.25;1737016;81;21116;-94
2020/12/11 12:32:18;;;;;;;24.43;17.40;;;;;;;-2.26;71.90;100726.67;1719085;82;21349;-96
2020/12/11 12:35:37;;;;;;;26.73;19.75;;;;;;;-2.23;72.10;100749.13;1722094;81;21286;-93
2020/12/11 12:39:08;;;;;;;27.70;17.67;;;;;;;-2.17;72.20;100718.26;1837183;77;24318;-92
2020/12/11 12:45:49;;;;;;;26.67;18.87;;;;;;;-2.23;72.25;100706.05;1704885;82;21243;-94
2020/12/11 12:49:23;;;;;;;26.23;15.67;;;;;;;-2.24;72.20;100731.33;1797754;78;21158;-92
2020/12/11 12:56:31;;;;;;;28.43;19.13;;;;;;;-2.31;72.20;100721.36;1754439;78;21163;-93
2020/12/11 12:59:14;;;;;;;33.10;19.20;;;;;;;-2.29;72.50;100700.73;1810096;79;23156;-93
2020/12/11 13:06:16;;;;;;;;;;;;;;;;;;;;;
2020/12/11 13:39:36;;;;;;;22.77;15.47;;;;;;;-2.46;73.68;100724.46;1742740;78;23712;-95
2020/12/11 13:42:41;;;;;;;25.60;18.33;;;;;;;-2.56;73.68;100736.77;1717690;80;21131;-94
2020/12/11 13:45:56;;;;;;;24.20;17.07;;;;;;;-2.52;73.56;100736.56;1744090;79;21262;-94
2020/12/11 13:49:32;;;;;;;;;;;;;;;;;;;;;
2020/12/11 14:03:30;;;;;;;28.40;18.87;;;;;;;-2.49;74.65;100718.94;1802803;79;22223;-92
2020/12/11 14:06:52;;;;;;;;;;;;;;;;;;;;;
2020/12/11 14:23:07;;;;;;;25.00;18.97;;;;;;;-2.26;73.94;100724.06;1840223;78;21146;-94
2020/12/11 14:26:42;;;;;;;;;;;;;;;;;;;;;
2020/12/11 14:30:12;;;;;;;27.07;15.87;;;;;;;-2.13;73.77;100733.23;1800620;79;21103;-94
2020/12/11 14:33:26;;;;;;;26.23;16.47;;;;;;;-2.16;73.67;100719.92;1808223;77;21243;-94
2020/12/11 14:36:34;;;;;;;21.43;13.83;;;;;;;-2.14;73.72;100720.30;1777899;78;21122;-93
2020/12/11 14:40:03;;;;;;;;;;;;;;;;;;;;;
2020/12/11 14:43:27;;;;;;;;;;;;;;;;;;;;;
2020/12/11 14:46:48;;;;;;;;;;;;;;;;;;;;;
2020/12/11 15:00:29;;;;;;;24.67;17.67;;;;;;;-1.93;73.54;100716.31;1811757;77;22221;-92
2020/12/11 15:03:56;;;;;;;32.10;20.00;;;;;;;-2.01;73.64;100721.20;1765184;81;21145;-94
2020/12/11 15:10:34;;;;;;;29.97;18.67;;;;;;;-1.91;72.74;100713.12;1644172;83;21163;-91
2020/12/11 15:24:21;;;;;;;29.77;19.10;;;;;;;-1.96;72.66;100719.97;1621482;83;21404;-94
2020/12/11 15:28:03;;;;;;;;;;;;;;;;;;;;;
2020/12/11 15:31:11;;;;;;;27.80;18.73;;;;;;;-1.92;72.27;100715.39;1614475;87;21233;-95
2020/12/11 15:34:40;;;;;;;;;;;;;;;;;;;;;
2020/12/11 15:37:33;;;;;;;36.07;21.67;;;;;;;-1.97;72.06;100713.05;1611844;86;21356;-95
2020/12/11 15:40:57;;;;;;;27.43;15.77;;;;;;;-1.96;72.10;100704.73;1580291;88;21393;-93
2020/12/11 15:44:11;;;;;;;32.03;19.83;;;;;;;-1.98;72.07;100715.75;1591807;88;21340;-94
2020/12/11 15:50:40;;;;;;;31.83;20.37;;;;;;;-1.99;71.74;100695.33;1641092;85;21342;-93
2020/12/11 15:54:04;;;;;;;23.33;15.47;;;;;;;-1.94;71.51;100691.58;1768390;78;23586;-93
2020/12/11 15:57:28;;;;;;;26.57;18.80;;;;;;;-2.02;71.41;100704.66;1777690;78;21140;-94
2020/12/11 16:00:54;;;;;;;31.10;19.40;;;;;;;-2.01;71.28;100697.69;1778607;79;21168;-95
2020/12/11 16:04:09;;;;;;;32.50;18.80;;;;;;;-2.04;71.41;100703.92;1752183;80;21158;-92
2020/12/11 16:07:03;;;;;;;34.67;20.63;;;;;;;-2.17;71.78;100696.06;1718407;79;21177;-95